AirNav   Air Wisconsin pilot careers
 
 739 users online  

X10 Belle Glade State Municipal Airport
Belle Glade, Florida, USA

GOING TO BELLE GLADE?


FAA INFORMATION EFFECTIVE 29 MARCH 2018

Location

FAA Identifier: X10
Lat/Long: 26-41-53.9000N / 080-39-38.9000W
26-41.898333N / 080-39.648333W
26.6983056 / -80.6608056
(estimated)
Elevation: 14 ft. / 4 m (estimated)
Variation: 03W (1985)
From city: 1 mile NE of BELLE GLADE, FL
Time zone: UTC -4 (UTC -5 during Standard Time)
Zip code: 33430

Airport Operations

Airport use: Open to the public
Activation date: 04/1940
Control tower: no
ARTCC: MIAMI CENTER
FSS: MIAMI FLIGHT SERVICE STATION
NOTAMs facility: MIA (NOTAM-D service available)
Attendance: UNATNDD
Wind indicator: lighted, WIND SOCK TORN OFF
Segmented circle: no

Airport Communications

CTAF: 122.9

Nearby radio navigation aids

VOR radial/distance  VOR name  Freq  Var
PHKr162/5.3PAHOKEE VOR/DME115.4000E
PBIr275/30.8PALM BEACH VORTAC115.7003W
LBVr100/39.9LA BELLE VORTAC110.4001E

 
NDB name  Hdg/Dist  Freq  Var  ID
UNITED239/21.540505WUTX ..- - -..-

Airport Services

Airframe service: NONE
Powerplant service: NONE
Bottled oxygen: NONE
Bulk oxygen: NONE

Runway Information

Runway 9/27

Dimensions: 3750 x 50 ft. / 1143 x 15 m
Surface: asphalt, in excellent condition
RUNWAY 9  RUNWAY 27
Latitude: 26-41.898167N26-41.897333N
Longitude: 080-39.992167W080-39.303000W
Elevation: 14.0 ft.11.0 ft.
Gradient: 0.1%0.1%
Traffic pattern: leftleft
Runway heading: 093 magnetic, 090 true273 magnetic, 270 true
Displaced threshold: 225 ft.75 ft.
Declared distances: TORA:3750 TODA:3750TORA:3750 TODA:3750
Markings: basic, in good conditionbasic, in good condition
Obstructions: 35 ft. tree, 900 ft. from runway, 30 ft. left of centerline, 20:1 slope to clear52 ft. pole, 1374 ft. from runway, 30 ft. left of centerline, 22:1 slope to clear

Airport Ownership and Management from official FAA records

Ownership: Publicly-owned
Owner: CITY OF BELLE GLADE
110 DR. MARTIN LUTHER KING JR. BLVD
BELLE GLADE, FL 33430-3900
Phone 561-996-0100
CONTACT PERSON: LOMAX HARRELLE 561-992-1601
Manager: MARCOS MONTES DE OCA
110 DR. MARTIN LUTHER KING JR. BLVD
BELLE GLADE, FL 33430
Phone 561-996-0100

Airport Operational Statistics

Aircraft based on the field: 11
Single engine airplanes: 10
Helicopters: 1
    
Aircraft operations: avg 34/week *
67% local general aviation
33% transient general aviation
* for 12-month period ending 22 March 2017

Additional Remarks

RY 09 NIGHT LNDGS NOT ADVISED DUE TO UNLGTD POWER LINES IN APCH.
BERM FULL LENGTH OF RY 113 FT N OF CNTRLN, RY 09/27.

Instrument Procedures

There are no published instrument procedures at X10.

Some nearby airports with instrument procedures:

KPHK - Palm Beach County Glades Airport (5 nm N)
2IS - Airglades Airport (21 nm W)
06FA - William P Gwinn Airport (22 nm NE)
F45 - North Palm Beach County General Aviation Airport (25 nm E)
KPBI - Palm Beach International Airport (30 nm E)
 
Loc | Ops | Rwys | IFR | FBO | Links
Com | Nav | Svcs | Stats | Notes


 
Area around X10 (Belle Glade State Municipal Airport)
 
Road maps at: MapQuest Bing Google
 
Aerial photo
WARNING: Photo may not be current or correct
Aerial photo of X10 (Belle Glade State Municipal Airport)
Do you have a better or more recent aerial photo of Belle Glade State Municipal Airport that you would like to share? If so, please send us your photo.

 
Sectional chart

 
Airport distance calculator
Flying to Belle Glade State Municipal Airport? Find the distance to fly.

From to X10

Sunrise and sunset
Times for 21-Apr-2018
 Local
(UTC-4)
 Zulu
(UTC)
Morning civil twilight06:3010:30
Sunrise06:5410:54
Sunset19:4923:49
Evening civil twilight20:1300:13

Current date and time
Zulu (UTC)  22-Apr-2018 03:21:10
Local (UTC-4)  21-Apr-2018 23:21:10
 
METAR
KF45 
25nm E 
220255Z AUTO 09011KT 10SM BKN018 BKN060 24/22 A3014 RMK AO2
KPBI 
30nm E 
220253Z 09017G24KT 10SM SCT015 BKN025 BKN040 24/22 A3013 RMK AO2 SLP203 T02440217 52010
KLNA 
32nm E 
220255Z AUTO 08011G19KT 10SM SCT023 SCT029 SCT049 25/21 A3013 RMK AO2 T02450213
KOBE 
35nm N 
220255Z AUTO 09003KT 7SM SCT021 SCT029 21/20 A3014 RMK AO2 LTG DSNT SE
KBCT 
36nm SE 
220247Z 09012KT 9SM BKN028 25/22 A3012 RMK LAST
KSUA 
38nm NE 
220050Z 10011G19KT 7SM BKN018 25/21 A3013
KFXE 
39nm SE 
220253Z 07012KT 10SM SCT017 25/23 A3011 RMK AO2 SLP200 60004 T02500233 52010
KPMP 
40nm SE 
220253Z AUTO 08010KT 9SM FEW016 SCT023 SCT060 25/23 A3012 RMK AO2 SLP199 60003 T02500228 53010
KIMM 
43nm W 
212345Z AUTO 09007G12KT 10SM SCT070 27/17 A3008 RMK AO2
KFLL 
47nm SE 
220300Z 10014KT 10SM BKN019 26/23 A3011 RMK AO2 T02610233 $
TAF
KPBI 
30nm E 
212058Z 2121/2218 08015G25KT P6SM SCT020 BKN050 BKN250 FM220100 11012KT P6SM VCSH SCT020 BKN035 FM221400 11015KT P6SM VCSH SCT025 BKN040
KSUA 
38nm NE 
211736Z 2118/2218 10015G24KT P6SM VCSH SCT025 BKN030 FM220000 10013G21KT P6SM VCSH SCT025 BKN035 FM220300 10010KT P6SM VCSH SCT020 BKN030 FM221300 11014G21KT P6SM VCSH SCT025 BKN035
NOTAMs
Click for the latest NOTAMs
NOTAMs are issued by the DoD/FAA and will open in a separate window not controlled by AirNav.

 

 
 

Would you like to see your business listed on this page?

 If your business provides an interesting product or service to pilots, flight crews, aircraft, or users of the Belle Glade State Municipal Airport, you should consider listing it here.  To start the listing process, click on the button below
 
Add a business
 

Other Pages about Belle Glade State Municipal Airport

Update a link
 
Copyright © AirNav, LLC. All rights reserved. Privacy Policy  Contact